Aérodrome :
LOGIN :

S'inscrire | Disclaimer

   EN    FR    IT 

 










Légende :    VFR   VFR Marginal   IFR   IFR Intensif   IFR Très Intensif
Visi : 
Plafond : 
>= 8 km
>= 3000ft
5 à 8 km
1000 à 3000 ft
1500m à 5 km
500 à 1000 ft
800 à 1500m
200 à 500 ft
< 800m
< 200 ft
Symboles :   Orages  Brouillard  Fortes neiges  Fortes précipitations  Vent > 20 kt
SIGMETs :   Divers  Orages  Givrage  Turbulence  Onde Orograph.  Cendres Volcan.






- Altitude de l'aérodrome : 506 ft
- Code IATA : GOT


ESGG - Landvetter

DERNIER METAR :
  • 200120Z 04003KT 2000 BR RA VV017 04/04 Q1016 R21/29//95

METARs EXPIRÉS :
  • 200050Z 04004KT 0450 R03/P1500N R21/1100U DZ FG VV003 04/04 Q1016 R21/29//95
  • 200020Z 06004KT 0300 R03/P1500N R21/0750N -DZ FG VV004 04/04 Q1015 R21/29//95
  • 192350Z 09003KT 1300 R03/P1500N R21/P1500N BR OVC003 04/04 Q1015 R21/29//95
  • 192320Z 06003KT 1600 BR BKN004 04/03 Q1015 R21/29//95
  • 192250Z 11004KT 3300 BR SCT003 BKN008 04/03 Q1014 R21/29//95
  • 192220Z 13007KT 9999 FEW008 BKN014 04/03 Q1014 R21/29//95

TAF TAF ESGG
Valide du 20 à 00h jusqu'au 21 à 00h UTC


192330Z 2000/2024 11004KT 0300 FG VV002
PROB40 2000/2006 5000 DZ BKN005
BECMG 2006/2008 6000 NSW BKN005
PROB40 2008/2011 BKN010
BECMG 2011/2013 BKN015
TEMPO 2013/2015 BKN010
TEMPO 2018/2024 4000 RADZ BKN008



MET'MAP, la Météo Aéronautique d'un coup d'oeil ! - Copyright ORBIFLY Décembre 2007 - Disclaimer

ORBIFLY MET'MAP TEAM :

Programmation & Développement : Alexandra Zaïnal
Conception & Développement : Baudouin d'Aumeries
Co-Programmation & Développement : Marc-Olivier Méhu
Soutien technique & logistique : Manuel Goepfert

Contact : metmap@orbifly.com




SOURCES & CREDITS :

   NOAA